Time;durP1;ratioP1;P1;durP2;ratioP2;P2;SDS_P1;SDS_P2;PMS_P1;PMS_P2;Temp;Humidity;BMP_temperature;BMP_pressure;BME280_temperature;BME280_humidity;BME280_pressure;Samples;Min_cycle;Max_cycle;Signal;HPM_P1;HPM_P2
2023/11/14 00:00:06;;;;;;;;;;;16.20;85.00;;;;;;4028892;29;20059;-44
2023/11/14 00:02:47;;;;;;;;;;;16.20;84.90;;;;;;4029033;29;19938;-44
2023/11/14 00:05:29;;;;;;;;;;;16.30;85.00;;;;;;4017349;29;19935;-46
2023/11/14 00:08:10;;;;;;;;;;;16.30;85.60;;;;;;4017410;29;20053;-46
2023/11/14 00:10:52;;;;;;;;;;;16.30;85.00;;;;;;4028772;29;19950;-46
2023/11/14 00:13:33;;;;;;;;;;;16.20;84.90;;;;;;4030084;29;19934;-46
2023/11/14 00:16:16;;;;;;;;;;;16.20;85.20;;;;;;4033751;29;20443;-47
2023/11/14 00:18:57;;;;;;;;;;;16.20;85.00;;;;;;4043938;29;20295;-46
2023/11/14 00:21:37;;;;;;;;;;;16.20;84.80;;;;;;4044514;29;20059;-46
2023/11/14 00:24:18;;;;;;;;;;;16.30;84.70;;;;;;4044000;29;19938;-44
2023/11/14 00:27:00;;;;;;;;;;;16.30;84.80;;;;;;4033517;29;20295;-45
2023/11/14 00:29:41;;;;;;;;;;;16.30;84.90;;;;;;4036283;29;20039;-46
2023/11/14 00:32:23;;;;;;;;;;;16.40;84.80;;;;;;4044091;29;19987;-44
2023/11/14 00:35:05;;;;;;;;;;;16.40;84.90;;;;;;4044316;29;20463;-46
2023/11/14 00:37:46;;;;;;;;;;;16.40;85.00;;;;;;4043961;29;19985;-43
2023/11/14 00:40:27;;;;;;;;;;;16.40;86.00;;;;;;4040896;29;19934;-46
2023/11/14 00:43:08;;;;;;;;;;;16.40;85.00;;;;;;4028592;29;19935;-46
2023/11/14 00:45:49;;;;;;;;;;;16.40;84.80;;;;;;4016464;29;20291;-46
2023/11/14 00:48:32;;;;;;;;;;;16.50;85.50;;;;;;4027724;29;19936;-45
2023/11/14 00:51:13;;;;;;;;;;;16.50;84.60;;;;;;4027124;29;19935;-44
2023/11/14 00:53:56;;;;;;;;;;;16.50;84.40;;;;;;4028360;29;20002;-45
2023/11/14 00:56:38;;;;;;;;;;;16.50;84.40;;;;;;4017141;29;19958;-44
2023/11/14 00:59:19;;;;;;;;;;;16.50;84.30;;;;;;4031022;29;19950;-45
2023/11/14 01:02:00;;;;;;;;;;;16.50;84.00;;;;;;4043860;29;20033;-45
2023/11/14 01:04:43;;;;;;;;;;;16.50;84.30;;;;;;4043028;29;19938;-46
2023/11/14 01:07:24;;;;;;;;;;;16.40;84.40;;;;;;4043654;29;19934;-45
2023/11/14 01:10:06;;;;;;;;;;;16.40;84.70;;;;;;4029286;29;19946;-45
2023/11/14 01:12:47;;;;;;;;;;;16.40;84.90;;;;;;4043648;29;19933;-45
2023/11/14 01:15:29;;;;;;;;;;;16.20;84.90;;;;;;4021112;29;19934;-45
2023/11/14 01:18:10;;;;;;;;;;;16.20;86.10;;;;;;4032567;29;19979;-44
2023/11/14 01:20:52;;;;;;;;;;;16.20;85.30;;;;;;4026690;29;19938;-45
2023/11/14 01:23:33;;;;;;;;;;;16.10;85.60;;;;;;4016037;29;19939;-45
2023/11/14 01:26:14;;;;;;;;;;;16.10;86.10;;;;;;4030447;29;19939;-45
2023/11/14 01:28:56;;;;;;;;;;;16.10;86.20;;;;;;4023941;29;20287;-45
2023/11/14 01:31:36;;;;;;;;;;;16.20;86.30;;;;;;4027749;29;19935;-45
2023/11/14 01:34:17;;;;;;;;;;;16.30;86.10;;;;;;4016025;29;20430;-46
2023/11/14 01:37:00;;;;;;;;;;;16.30;85.60;;;;;;4015535;29;19938;-45
2023/11/14 01:39:43;;;;;;;;;;;16.30;85.40;;;;;;4027831;29;20044;-46
2023/11/14 01:42:24;;;;;;;;;;;16.40;85.40;;;;;;4027793;29;20014;-45
2023/11/14 01:45:05;;;;;;;;;;;16.40;85.20;;;;;;4027762;29;20678;-46
2023/11/14 01:47:48;;;;;;;;;;;16.50;85.10;;;;;;4015928;29;19935;-46
2023/11/14 01:50:29;;;;;;;;;;;16.50;85.00;;;;;;4026178;29;19982;-45
2023/11/14 01:53:12;;;;;;;;;;;16.40;84.70;;;;;;4042878;29;20022;-45
2023/11/14 01:55:53;;;;;;;;;;;16.40;84.80;;;;;;4020990;29;19935;-45
2023/11/14 01:58:35;;;;;;;;;;;16.40;85.10;;;;;;4026743;29;19939;-45
2023/11/14 02:01:15;;;;;;;;;;;16.30;85.00;;;;;;4025439;29;20299;-46
2023/11/14 02:03:56;;;;;;;;;;;16.30;85.30;;;;;;4042875;29;20331;-45
2023/11/14 02:06:37;;;;;;;;;;;16.30;85.50;;;;;;4042373;29;19978;-46
2023/11/14 02:09:20;;;;;;;;;;;16.30;85.60;;;;;;4042223;29;19950;-46
2023/11/14 02:12:01;;;;;;;;;;;16.20;85.70;;;;;;4027140;29;20075;-44
2023/11/14 02:14:43;;;;;;;;;;;16.20;85.90;;;;;;4041735;29;20316;-44
2023/11/14 02:17:23;;;;;;;;;;;16.20;86.20;;;;;;4042553;29;20291;-44
2023/11/14 02:20:05;;;;;;;;;;;16.20;86.50;;;;;;4029424;29;19939;-44
2023/11/14 02:22:46;;;;;;;;;;;16.20;87.40;;;;;;4020879;29;19990;-45
2023/11/14 02:25:29;;;;;;;;;;;16.20;86.40;;;;;;4014360;29;19938;-44
2023/11/14 02:28:09;;;;;;;;;;;16.30;86.30;;;;;;4016802;29;19939;-46
2023/11/14 02:30:50;;;;;;;;;;;16.30;86.80;;;;;;4026426;29;20087;-45
2023/11/14 02:33:33;;;;;;;;;;;16.30;85.90;;;;;;4027264;29;20060;-45
2023/11/14 02:36:14;;;;;;;;;;;16.40;85.90;;;;;;4015649;29;19939;-45
2023/11/14 02:38:55;;;;;;;;;;;16.40;86.60;;;;;;4027663;29;19939;-45
2023/11/14 02:41:37;;;;;;;;;;;16.50;85.40;;;;;;4026985;29;20391;-44
2023/11/14 02:44:18;;;;;;;;;;;16.60;85.10;;;;;;4026295;29;19934;-45
2023/11/14 02:46:59;;;;;;;;;;;16.60;85.00;;;;;;4015441;29;19979;-46
2023/11/14 02:49:51;;;;;;;;;;;16.60;85.00;;;;;;4017877;29;19939;-44
2023/11/14 02:52:36;;;;;;;;;;;16.70;84.90;;;;;;4029446;29;19935;-52
2023/11/14 02:55:16;;;;;;;;;;;16.70;84.50;;;;;;4030330;29;20060;-44
2023/11/14 02:57:58;;;;;;;;;;;16.80;84.30;;;;;;4029827;29;19995;-44
2023/11/14 03:00:41;;;;;;;;;;;16.80;84.30;;;;;;4029561;29;20151;-44
2023/11/14 03:03:22;;;;;;;;;;;16.70;84.20;;;;;;4029595;29;19967;-45
2023/11/14 03:06:04;;;;;;;;;;;16.70;84.30;;;;;;4032739;29;19938;-46
2023/11/14 03:08:44;;;;;;;;;;;16.60;84.40;;;;;;4032029;29;20002;-47
2023/11/14 03:11:26;;;;;;;;;;;16.60;84.80;;;;;;4030432;29;20473;-46
2023/11/14 03:14:09;;;;;;;;;;;16.60;85.10;;;;;;4029358;29;19937;-46
2023/11/14 03:16:50;;;;;;;;;;;16.60;84.90;;;;;;4017930;29;19939;-46
2023/11/14 03:19:32;;;;;;;;;;;16.60;84.90;;;;;;4041826;29;19970;-45
2023/11/14 03:22:13;;;;;;;;;;;16.60;84.80;;;;;;4044471;29;19938;-52
2023/11/14 03:24:53;;;;;;;;;;;16.60;84.80;;;;;;4044375;29;20495;-55
2023/11/14 03:27:34;;;;;;;;;;;16.60;85.00;;;;;;4027401;29;20437;-55
2023/11/14 03:30:16;;;;;;;;;;;16.60;85.00;;;;;;4025766;29;20067;-52
2023/11/14 03:32:57;;;;;;;;;;;16.60;85.30;;;;;;4029302;29;20436;-52
2023/11/14 03:35:38;;;;;;;;;;;16.60;85.20;;;;;;4028887;29;19939;-54
2023/11/14 03:38:19;;;;;;;;;;;16.70;85.00;;;;;;4028855;29;19935;-55
2023/11/14 03:40:59;;;;;;;;;;;16.70;84.70;;;;;;4017654;29;20347;-56
2023/11/14 03:43:40;;;;;;;;;;;16.70;84.60;;;;;;4021383;29;19966;-53
2023/11/14 03:46:23;;;;;;;;;;;16.80;84.60;;;;;;4033018;29;19947;-55
2023/11/14 03:49:03;;;;;;;;;;;16.70;84.60;;;;;;4022235;29;19939;-52
2023/11/14 03:51:44;;;;;;;;;;;16.70;84.50;;;;;;4044494;29;19934;-54
2023/11/14 03:54:25;;;;;;;;;;;16.60;84.60;;;;;;4043337;29;19938;-52
2023/11/14 03:57:06;;;;;;;;;;;16.70;85.10;;;;;;4044323;29;19998;-54
2023/11/14 03:59:47;;;;;;;;;;;16.70;85.00;;;;;;4039950;29;19939;-52
2023/11/14 04:02:29;;;;;;;;;;;16.70;84.90;;;;;;4018395;29;19943;-54
2023/11/14 04:05:10;;;;;;;;;;;16.80;85.70;;;;;;4044181;29;19951;-56
2023/11/14 04:07:52;;;;;;;;;;;16.70;84.50;;;;;;4044319;29;20080;-55
2023/11/14 04:10:34;;;;;;;;;;;16.70;84.70;;;;;;4032437;29;19935;-54
2023/11/14 04:13:16;;;;;;;;;;;16.60;84.80;;;;;;4043450;29;20005;-52
2023/11/14 04:15:57;;;;;;;;;;;16.60;85.10;;;;;;4043045;29;19947;-52
2023/11/14 04:18:39;;;;;;;;;;;16.60;85.20;;;;;;4043827;29;19939;-54
2023/11/14 04:21:20;;;;;;;;;;;16.60;85.10;;;;;;4032037;29;19939;-53
2023/11/14 04:24:00;;;;;;;;;;;16.70;85.10;;;;;;4017207;29;19966;-54
2023/11/14 04:26:42;;;;;;;;;;;16.70;85.00;;;;;;4028860;29;19938;-54
2023/11/14 04:29:23;;;;;;;;;;;16.70;85.10;;;;;;4028334;29;19979;-52
2023/11/14 04:32:05;;;;;;;;;;;16.70;85.10;;;;;;4028995;29;19939;-54
2023/11/14 04:34:47;;;;;;;;;;;16.70;84.90;;;;;;4028591;29;19939;-55
2023/11/14 04:37:30;;;;;;;;;;;16.80;84.70;;;;;;4015963;29;24283;-51
2023/11/14 04:40:11;;;;;;;;;;;16.80;84.60;;;;;;4028424;29;19938;-51
2023/11/14 04:42:52;;;;;;;;;;;16.80;85.40;;;;;;4017175;29;19935;-52
2023/11/14 04:45:32;;;;;;;;;;;16.80;84.40;;;;;;4016499;29;20404;-53
2023/11/14 04:48:13;;;;;;;;;;;16.70;84.60;;;;;;4016507;29;19987;-53
2023/11/14 04:50:57;;;;;;;;;;;16.70;84.80;;;;;;4031232;29;19933;-50
2023/11/14 04:53:37;;;;;;;;;;;16.70;84.80;;;;;;4043642;29;19938;-52
2023/11/14 04:56:18;;;;;;;;;;;16.70;84.80;;;;;;4028273;29;19935;-53
2023/11/14 04:58:58;;;;;;;;;;;16.80;84.70;;;;;;4027703;29;19938;-50
2023/11/14 05:01:39;;;;;;;;;;;16.80;84.60;;;;;;4028195;29;19934;-53
2023/11/14 05:04:20;;;;;;;;;;;16.80;84.50;;;;;;4028310;29;19938;-52
2023/11/14 05:07:02;;;;;;;;;;;16.80;84.60;;;;;;4041816;29;19935;-53
2023/11/14 05:09:43;;;;;;;;;;;16.70;84.60;;;;;;4043286;29;20014;-52
2023/11/14 05:12:24;;;;;;;;;;;16.70;85.10;;;;;;4026096;29;19935;-52
2023/11/14 05:15:07;;;;;;;;;;;16.70;85.10;;;;;;4028135;29;19935;-53
2023/11/14 05:17:47;;;;;;;;;;;16.70;85.10;;;;;;4035174;29;19934;-52
2023/11/14 05:20:28;;;;;;;;;;;16.70;85.10;;;;;;4043460;29;19934;-55
2023/11/14 05:23:10;;;;;;;;;;;16.70;85.10;;;;;;4027777;29;19983;-53
2023/11/14 05:25:51;;;;;;;;;;;16.60;85.40;;;;;;4027737;29;19938;-54
2023/11/14 05:28:32;;;;;;;;;;;16.70;85.40;;;;;;4027581;29;20363;-52
2023/11/14 05:31:14;;;;;;;;;;;16.70;85.20;;;;;;4030740;29;19934;-53
2023/11/14 05:33:55;;;;;;;;;;;16.80;84.90;;;;;;4041676;29;20034;-51
2023/11/14 05:36:36;;;;;;;;;;;16.80;84.80;;;;;;4042479;29;19938;-55
2023/11/14 05:39:18;;;;;;;;;;;16.80;84.80;;;;;;4042625;29;19934;-53
2023/11/14 05:42:00;;;;;;;;;;;16.70;85.60;;;;;;4042977;29;20623;-56
2023/11/14 05:44:40;;;;;;;;;;;16.70;85.00;;;;;;4043170;29;19953;-53
2023/11/14 05:47:21;;;;;;;;;;;16.70;85.00;;;;;;4027404;29;20468;-56
2023/11/14 05:50:03;;;;;;;;;;;16.60;85.30;;;;;;4027216;29;19999;-52
2023/11/14 05:52:44;;;;;;;;;;;16.60;85.50;;;;;;4027172;29;19934;-52
2023/11/14 05:55:26;;;;;;;;;;;16.60;85.40;;;;;;4027296;29;19939;-53
2023/11/14 05:58:07;;;;;;;;;;;16.70;85.30;;;;;;4026490;29;19959;-51
2023/11/14 06:00:48;;;;;;;;;;;16.70;85.30;;;;;;4014876;29;19990;-52
2023/11/14 06:03:28;;;;;;;;;;;16.80;85.20;;;;;;4015188;29;20300;-52
2023/11/14 06:06:09;;;;;;;;;;;16.80;85.20;;;;;;4026409;29;19939;-52
2023/11/14 06:08:50;;;;;;;;;;;16.80;85.20;;;;;;4015184;29;19939;-53
2023/11/14 06:11:33;;;;;;;;;;;16.70;85.10;;;;;;4041103;29;19935;-54
2023/11/14 06:14:13;;;;;;;;;;;16.70;85.10;;;;;;4042614;29;20059;-54
2023/11/14 06:16:54;;;;;;;;;;;16.60;85.30;;;;;;4030904;29;19935;-53
2023/11/14 06:19:37;;;;;;;;;;;16.60;85.60;;;;;;4030857;29;19938;-52
2023/11/14 06:22:17;;;;;;;;;;;16.60;85.80;;;;;;4026862;29;19935;-54
2023/11/14 06:24:58;;;;;;;;;;;16.60;85.80;;;;;;4029414;29;20049;-52
2023/11/14 06:27:40;;;;;;;;;;;16.70;85.70;;;;;;4033791;29;19937;-52
2023/11/14 06:30:21;;;;;;;;;;;16.70;85.40;;;;;;4045531;29;19978;-55
2023/11/14 06:33:03;;;;;;;;;;;16.70;85.30;;;;;;4044893;29;20385;-53
2023/11/14 06:35:47;;;;;;;;;;;16.70;85.40;;;;;;4044857;29;19958;-54
2023/11/14 06:38:28;;;;;;;;;;;16.70;85.30;;;;;;4031730;29;19939;-51
2023/11/14 06:41:12;;;;;;;;;;;16.80;85.20;;;;;;4029278;29;20311;-57
2023/11/14 06:43:54;;;;;;;;;;;16.80;85.20;;;;;;4029210;29;19935;-52
2023/11/14 06:46:35;;;;;;;;;;;16.80;85.40;;;;;;4029432;29;19935;-54
2023/11/14 06:49:15;;;;;;;;;;;16.80;85.50;;;;;;4041669;29;20432;-51
2023/11/14 06:51:56;;;;;;;;;;;16.80;85.60;;;;;;4043212;29;20690;-52
2023/11/14 06:54:37;;;;;;;;;;;16.70;85.70;;;;;;4033455;29;19935;-52
2023/11/14 06:57:18;;;;;;;;;;;16.70;85.80;;;;;;4044311;29;19938;-52
2023/11/14 07:00:00;;;;;;;;;;;16.70;86.00;;;;;;4029893;29;19935;-53
2023/11/14 07:02:42;;;;;;;;;;;16.70;85.90;;;;;;4017281;29;20075;-53
2023/11/14 07:05:24;;;;;;;;;;;16.80;85.70;;;;;;4029190;29;19934;-54
2023/11/14 07:08:05;;;;;;;;;;;16.80;85.60;;;;;;4028918;29;19950;-55
2023/11/14 07:10:46;;;;;;;;;;;16.80;86.30;;;;;;4037024;29;19935;-51
2023/11/14 07:13:28;;;;;;;;;;;16.80;85.50;;;;;;4031115;29;20076;-53
2023/11/14 07:16:10;;;;;;;;;;;16.80;85.70;;;;;;4028123;29;19939;-51
2023/11/14 07:18:51;;;;;;;;;;;16.70;85.70;;;;;;4027744;29;19935;-54
2023/11/14 07:21:32;;;;;;;;;;;16.70;85.80;;;;;;4029060;29;19935;-54
2023/11/14 07:24:13;;;;;;;;;;;16.60;86.00;;;;;;4029847;29;19938;-54
2023/11/14 07:26:54;;;;;;;;;;;16.60;86.10;;;;;;4016547;29;19998;-45
2023/11/14 07:29:35;;;;;;;;;;;16.50;86.30;;;;;;4027693;29;19938;-45
2023/11/14 07:32:18;;;;;;;;;;;16.50;86.50;;;;;;4015653;29;20007;-44
2023/11/14 07:34:58;;;;;;;;;;;16.50;86.80;;;;;;4038263;29;20071;-44
2023/11/14 07:37:39;;;;;;;;;;;16.50;86.80;;;;;;4043258;29;19938;-50
2023/11/14 07:40:21;;;;;;;;;;;16.60;86.60;;;;;;4042871;29;19938;-51
2023/11/14 07:43:02;;;;;;;;;;;16.60;86.30;;;;;;4034394;29;19986;-51
2023/11/14 07:45:43;;;;;;;;;;;16.70;86.20;;;;;;4027450;29;19935;-51
2023/11/14 07:48:25;;;;;;;;;;;16.80;86.10;;;;;;4027593;29;19998;-44
2023/11/14 07:51:06;;;;;;;;;;;16.70;85.80;;;;;;4032012;29;20157;-44
2023/11/14 07:53:47;;;;;;;;;;;16.80;85.70;;;;;;4032069;29;19935;-44
2023/11/14 07:56:28;;;;;;;;;;;16.70;85.70;;;;;;4039801;29;19935;-44
2023/11/14 07:59:09;;;;;;;;;;;16.70;86.00;;;;;;4029378;29;19947;-44
2023/11/14 08:01:51;;;;;;;;;;;16.70;86.80;;;;;;4037843;29;19934;-44
2023/11/14 08:04:33;;;;;;;;;;;16.70;86.10;;;;;;4026864;29;20278;-45
2023/11/14 08:07:14;;;;;;;;;;;16.60;86.30;;;;;;4028165;29;19938;-44
2023/11/14 08:09:55;;;;;;;;;;;16.60;86.60;;;;;;4017401;29;19954;-44
2023/11/14 08:12:36;;;;;;;;;;;16.60;86.60;;;;;;4027786;29;19935;-44
2023/11/14 08:15:17;;;;;;;;;;;16.70;86.60;;;;;;4036514;29;20042;-43
2023/11/14 08:17:58;;;;;;;;;;;16.60;86.40;;;;;;4058525;29;19973;-43
2023/11/14 08:20:40;;;;;;;;;;;16.60;86.40;;;;;;4030586;29;19950;-43
2023/11/14 08:23:21;;;;;;;;;;;16.60;86.40;;;;;;4015224;29;19939;-44
2023/11/14 08:26:02;;;;;;;;;;;16.60;87.50;;;;;;4056010;29;20387;-44
2023/11/14 08:28:43;;;;;;;;;;;16.60;86.80;;;;;;4026911;29;20376;-44
2023/11/14 08:31:24;;;;;;;;;;;16.50;86.80;;;;;;4027665;29;19938;-44
2023/11/14 08:34:04;;;;;;;;;;;16.40;87.80;;;;;;4030281;29;19935;-43
2023/11/14 08:36:47;;;;;;;;;;;16.40;87.10;;;;;;4026491;29;19934;-44
2023/11/14 08:39:27;;;;;;;;;;;16.40;87.40;;;;;;4031698;29;19935;-43
2023/11/14 08:42:11;;;;;;;;;;;16.30;87.60;;;;;;4026675;29;20406;-42
2023/11/14 08:44:52;;;;;;;;;;;16.30;87.80;;;;;;4027792;29;19934;-42
2023/11/14 08:47:33;;;;;;;;;;;16.20;88.10;;;;;;4026861;29;19979;-45
2023/11/14 08:50:16;;;;;;;;;;;16.20;88.60;;;;;;4017050;29;19939;-44
2023/11/14 08:52:58;;;;;;;;;;;16.20;89.10;;;;;;4027200;29;19934;-46
2023/11/14 08:55:39;;;;;;;;;;;16.20;89.30;;;;;;4032842;29;19942;-45
2023/11/14 08:58:20;;;;;;;;;;;16.10;90.00;;;;;;4040684;29;19934;-45
2023/11/14 09:01:01;;;;;;;;;;;16.10;89.40;;;;;;4039485;29;19938;-45
2023/11/14 09:03:44;;;;;;;;;;;16.10;89.60;;;;;;4042707;29;19938;-45
2023/11/14 09:06:25;;;;;;;;;;;16.00;90.20;;;;;;4040559;29;20442;-46
2023/11/14 09:09:08;;;;;;;;;;;16.00;89.90;;;;;;4040973;29;19953;-45
2023/11/14 09:11:49;;;;;;;;;;;16.00;90.00;;;;;;4030685;29;19938;-45
2023/11/14 09:14:29;;;;;;;;;;;15.90;90.40;;;;;;4026388;29;19983;-45
2023/11/14 09:17:11;;;;;;;;;;;15.90;90.00;;;;;;4027419;29;20363;-45
2023/11/14 09:19:53;;;;;;;;;;;15.90;90.10;;;;;;4026501;29;20083;-45
2023/11/14 09:22:34;;;;;;;;;;;15.90;90.10;;;;;;4015125;29;19938;-44
2023/11/14 09:25:16;;;;;;;;;;;15.90;90.10;;;;;;4025652;29;20119;-46
2023/11/14 09:27:59;;;;;;;;;;;15.80;90.10;;;;;;4038736;29;19947;-46
2023/11/14 09:30:40;;;;;;;;;;;15.80;90.10;;;;;;4041723;29;20685;-46
2023/11/14 09:33:22;;;;;;;;;;;15.80;90.10;;;;;;4024479;29;19935;-47
2023/11/14 09:36:04;;;;;;;;;;;15.80;90.10;;;;;;4024908;29;19939;-46
2023/11/14 09:38:45;;;;;;;;;;;15.80;90.10;;;;;;4026535;29;20567;-45
2023/11/14 09:41:27;;;;;;;;;;;15.80;90.20;;;;;;4018482;29;20320;-45
2023/11/14 09:44:09;;;;;;;;;;;15.70;90.20;;;;;;4018661;29;20023;-45
2023/11/14 09:46:51;;;;;;;;;;;15.80;90.30;;;;;;4025524;29;19938;-45
2023/11/14 09:49:32;;;;;;;;;;;15.70;90.40;;;;;;4020098;29;19939;-44
2023/11/14 09:52:13;;;;;;;;;;;15.70;90.50;;;;;;4023838;29;20075;-45
2023/11/14 09:54:54;;;;;;;;;;;15.70;90.60;;;;;;4025149;29;19934;-45
2023/11/14 09:57:37;;;;;;;;;;;15.70;90.60;;;;;;4025984;29;19951;-45
2023/11/14 10:00:18;;;;;;;;;;;15.70;90.70;;;;;;4014537;29;19939;-45
2023/11/14 10:03:01;;;;;;;;;;;15.70;90.70;;;;;;4019635;29;20390;-44
2023/11/14 10:05:42;;;;;;;;;;;15.60;90.70;;;;;;4026926;29;20505;-45
2023/11/14 10:08:23;;;;;;;;;;;15.60;90.80;;;;;;4026095;29;19954;-45
2023/11/14 10:11:05;;;;;;;;;;;15.60;90.90;;;;;;4026245;29;19939;-44
2023/11/14 10:13:47;;;;;;;;;;;15.60;90.90;;;;;;4027135;29;19939;-44
2023/11/14 10:16:29;;;;;;;;;;;15.60;91.00;;;;;;4027407;29;20384;-43
2023/11/14 10:19:11;;;;;;;;;;;15.60;91.10;;;;;;4024851;29;20414;-43
2023/11/14 10:21:51;;;;;;;;;;;15.60;91.10;;;;;;4026957;29;20004;-43
2023/11/14 10:24:32;;;;;;;;;;;15.60;91.10;;;;;;4019513;29;19955;-44
2023/11/14 10:27:13;;;;;;;;;;;15.60;91.10;;;;;;4026856;29;19935;-44
2023/11/14 10:29:56;;;;;;;;;;;15.60;91.50;;;;;;4026846;29;20072;-45
2023/11/14 10:32:37;;;;;;;;;;;15.60;91.10;;;;;;4027500;29;20399;-43
2023/11/14 10:35:18;;;;;;;;;;;15.60;91.20;;;;;;4040376;29;19979;-44
2023/11/14 10:38:14;;;;;;;;;;;15.60;91.20;;;;;;4036096;29;20272;-45
2023/11/14 10:40:56;;;;;;;;;;;15.60;91.60;;;;;;4039015;29;20298;-43
2023/11/14 10:43:37;;;;;;;;;;;15.50;91.20;;;;;;4014381;29;19939;-44
2023/11/14 10:46:19;;;;;;;;;;;15.60;91.30;;;;;;4026041;29;19987;-45
2023/11/14 10:49:01;;;;;;;;;;;15.60;91.40;;;;;;4024795;29;19970;-44
2023/11/14 10:51:41;;;;;;;;;;;15.50;91.40;;;;;;4026622;29;19939;-44
2023/11/14 10:54:22;;;;;;;;;;;15.50;91.50;;;;;;4026139;29;19952;-44
2023/11/14 10:57:04;;;;;;;;;;;15.50;91.50;;;;;;4040162;29;19939;-44
2023/11/14 10:59:51;;;;;;;;;;;15.60;91.50;;;;;;4040862;29;20299;-43
2023/11/14 11:02:35;;;;;;;;;;;15.60;91.90;;;;;;4030066;29;19966;-44
2023/11/14 11:05:16;;;;;;;;;;;15.60;91.50;;;;;;4033965;29;20398;-44
2023/11/14 11:08:04;;;;;;;;;;;15.60;91.60;;;;;;4041193;29;19934;-44
2023/11/14 11:10:45;;;;;;;;;;;15.60;91.50;;;;;;4043214;29;19938;-45
2023/11/14 11:13:27;;;;;;;;;;;15.60;91.60;;;;;;4043638;29;19938;-44
2023/11/14 11:16:08;;;;;;;;;;;15.60;91.70;;;;;;4028073;29;19986;-44
2023/11/14 11:18:51;;;;;;;;;;;15.70;91.90;;;;;;4029032;29;20015;-45
2023/11/14 11:21:31;;;;;;;;;;;15.70;92.00;;;;;;4028564;29;20002;-44
2023/11/14 11:24:13;;;;;;;;;;;15.60;92.10;;;;;;4028282;29;19943;-44
2023/11/14 11:27:15;;;;;;;;;;;15.70;92.10;;;;;;4028710;29;19966;-44
2023/11/14 11:30:07;;;;;;;;;;;15.60;92.10;;;;;;4027938;29;19939;-45
2023/11/14 11:32:53;;;;;;;;;;;15.70;92.20;;;;;;4027643;29;20076;-45
2023/11/14 11:35:36;;;;;;;;;;;15.70;92.10;;;;;;4042027;29;19938;-45
2023/11/14 11:38:17;;;;;;;;;;;15.60;92.10;;;;;;4041804;29;19934;-45
2023/11/14 11:41:08;;;;;;;;;;;15.60;92.00;;;;;;4029228;29;19946;-45
2023/11/14 11:44:02;;;;;;;;;;;15.60;92.00;;;;;;4027629;29;20021;-45
2023/11/14 11:46:43;;;;;;;;;;;15.60;92.00;;;;;;4028999;29;19935;-45
2023/11/14 11:49:29;;;;;;;;;;;15.60;92.40;;;;;;4029680;29;19943;-45
2023/11/14 11:52:21;;;;;;;;;;;15.60;92.00;;;;;;4028822;29;19935;-45
2023/11/14 11:55:18;;;;;;;;;;;15.60;92.00;;;;;;4027938;29;19996;-45
2023/11/14 11:58:02;;;;;;;;;;;15.70;92.00;;;;;;4019512;29;20303;-45
2023/11/14 12:00:43;;;;;;;;;;;15.70;92.10;;;;;;4027643;29;19939;-46
2023/11/14 12:03:23;;;;;;;;;;;15.60;92.00;;;;;;4028671;29;19938;-45
2023/11/14 12:06:09;;;;;;;;;;;15.70;92.40;;;;;;4026305;29;19948;-45
2023/11/14 12:08:52;;;;;;;;;;;15.70;92.00;;;;;;4029799;29;19935;-46
2023/11/14 12:11:34;;;;;;;;;;;15.70;92.00;;;;;;4032383;29;20264;-44
2023/11/14 12:14:17;;;;;;;;;;;15.70;91.90;;;;;;4031968;29;19934;-44
2023/11/14 12:16:58;;;;;;;;;;;15.70;91.90;;;;;;4042861;29;19970;-45
2023/11/14 12:19:40;;;;;;;;;;;15.80;92.00;;;;;;4043882;29;19934;-47
2023/11/14 12:22:20;;;;;;;;;;;15.80;92.20;;;;;;4037619;29;19990;-45
2023/11/14 12:25:03;;;;;;;;;;;15.80;92.30;;;;;;4026974;29;19990;-47
2023/11/14 12:27:48;;;;;;;;;;;15.80;92.30;;;;;;4030749;29;19938;-50
2023/11/14 12:30:29;;;;;;;;;;;15.90;92.40;;;;;;4020942;29;20935;-50
2023/11/14 12:33:12;;;;;;;;;;;15.90;92.80;;;;;;4026586;29;19979;-47
2023/11/14 12:35:57;;;;;;;;;;;15.90;92.50;;;;;;4015476;29;19951;-54
2023/11/14 12:38:39;;;;;;;;;;;15.90;92.60;;;;;;4027498;29;19939;-54
2023/11/14 12:41:24;;;;;;;;;;;15.90;92.60;;;;;;4016705;29;19935;-53
2023/11/14 12:44:07;;;;;;;;;;;15.90;92.70;;;;;;4027444;29;19939;-50
2023/11/14 12:46:51;;;;;;;;;;;15.90;92.80;;;;;;4014091;29;20120;-52
2023/11/14 12:49:33;;;;;;;;;;;16.00;92.90;;;;;;4007732;29;19947;-52
2023/11/14 12:52:18;;;;;;;;;;;15.90;92.80;;;;;;4017448;29;19939;-50
2023/11/14 12:55:00;;;;;;;;;;;16.00;92.80;;;;;;4026630;29;20019;-51
2023/11/14 12:57:43;;;;;;;;;;;16.00;92.80;;;;;;4014706;29;19938;-53
2023/11/14 13:00:24;;;;;;;;;;;16.00;92.90;;;;;;4026790;29;19935;-51
2023/11/14 13:03:05;;;;;;;;;;;16.00;93.30;;;;;;4028531;29;19950;-54
2023/11/14 13:05:47;;;;;;;;;;;16.00;92.90;;;;;;4042858;29;20307;-51
2023/11/14 13:08:27;;;;;;;;;;;16.00;92.80;;;;;;4026426;29;19935;-50
2023/11/14 13:11:08;;;;;;;;;;;16.00;92.70;;;;;;4014495;29;19944;-50
2023/11/14 13:13:50;;;;;;;;;;;16.00;93.10;;;;;;4015144;29;19938;-50
2023/11/14 13:16:31;;;;;;;;;;;16.00;92.60;;;;;;4025816;29;19938;-54
2023/11/14 13:19:13;;;;;;;;;;;16.00;92.60;;;;;;4039533;29;19935;-49
2023/11/14 13:21:57;;;;;;;;;;;16.00;92.90;;;;;;4025307;29;19934;-50
2023/11/14 13:24:38;;;;;;;;;;;15.90;92.50;;;;;;4025995;29;19995;-51
2023/11/14 13:27:18;;;;;;;;;;;15.90;92.90;;;;;;4014330;29;20059;-51
2023/11/14 13:30:01;;;;;;;;;;;15.90;92.50;;;;;;4033587;29;19953;-50
2023/11/14 13:32:43;;;;;;;;;;;15.90;92.60;;;;;;4019688;29;19935;-52
2023/11/14 13:35:24;;;;;;;;;;;15.80;92.60;;;;;;4000692;29;19991;-52
2023/11/14 13:38:05;;;;;;;;;;;15.80;92.60;;;;;;3997776;29;19939;-51
2023/11/14 13:40:48;;;;;;;;;;;15.80;92.60;;;;;;4013996;29;20407;-50
2023/11/14 13:43:29;;;;;;;;;;;15.80;92.70;;;;;;4026565;29;20429;-50
2023/11/14 13:46:13;;;;;;;;;;;15.80;92.70;;;;;;4026984;29;19938;-52
2023/11/14 13:49:00;;;;;;;;;;;15.80;92.70;;;;;;4040760;29;19938;-51
2023/11/14 13:51:40;;;;;;;;;;;15.80;92.80;;;;;;4041459;29;19947;-53
2023/11/14 13:54:25;;;;;;;;;;;15.70;92.80;;;;;;4030418;29;20037;-54
2023/11/14 13:57:06;;;;;;;;;;;15.70;92.80;;;;;;4041379;29;19962;-54
2023/11/14 13:59:47;;;;;;;;;;;15.70;92.90;;;;;;4040985;29;20387;-51
2023/11/14 14:02:30;;;;;;;;;;;15.60;93.20;;;;;;4026605;29;20002;-52
2023/11/14 14:05:11;;;;;;;;;;;15.70;92.90;;;;;;4025375;29;19939;-50
2023/11/14 14:07:51;;;;;;;;;;;15.60;92.90;;;;;;4025597;29;19935;-51
2023/11/14 14:10:33;;;;;;;;;;;15.60;93.30;;;;;;4026496;29;19939;-51
2023/11/14 14:13:14;;;;;;;;;;;15.60;92.90;;;;;;4025356;29;20280;-52
2023/11/14 14:15:55;;;;;;;;;;;15.60;92.90;;;;;;4026556;29;19935;-52
2023/11/14 14:18:38;;;;;;;;;;;15.60;92.90;;;;;;4026994;29;19935;-54
2023/11/14 14:21:19;;;;;;;;;;;15.60;92.90;;;;;;4028226;29;20343;-52
2023/11/14 14:24:00;;;;;;;;;;;15.60;93.00;;;;;;4040393;29;19971;-54
2023/11/14 14:26:41;;;;;;;;;;;15.60;93.30;;;;;;4041746;29;19950;-50
2023/11/14 14:29:22;;;;;;;;;;;15.60;93.00;;;;;;4030059;29;20291;-51
2023/11/14 14:32:03;;;;;;;;;;;15.60;93.00;;;;;;4030619;29;19938;-52
2023/11/14 14:34:46;;;;;;;;;;;15.50;93.00;;;;;;4030557;29;20072;-54
2023/11/14 14:37:27;;;;;;;;;;;15.50;93.00;;;;;;4024389;29;19983;-52
2023/11/14 14:40:09;;;;;;;;;;;15.50;93.00;;;;;;4031020;29;20019;-54
2023/11/14 14:42:50;;;;;;;;;;;15.50;93.00;;;;;;4026378;29;19938;-54
2023/11/14 14:45:34;;;;;;;;;;;15.50;93.10;;;;;;4028716;29;19942;-55
2023/11/14 14:48:14;;;;;;;;;;;15.50;93.20;;;;;;4033154;29;19940;-53
2023/11/14 14:50:57;;;;;;;;;;;15.50;93.20;;;;;;4033595;29;19990;-51
2023/11/14 14:53:38;;;;;;;;;;;15.50;93.30;;;;;;4033084;29;19938;-52
2023/11/14 14:56:18;;;;;;;;;;;15.50;93.30;;;;;;4029161;29;19935;-52
2023/11/14 14:59:00;;;;;;;;;;;15.50;93.70;;;;;;4029282;29;20469;-52
2023/11/14 15:01:44;;;;;;;;;;;15.50;93.30;;;;;;4028724;29;19936;-54
2023/11/14 15:04:25;;;;;;;;;;;15.50;93.30;;;;;;4029040;29;20072;-52
2023/11/14 15:07:07;;;;;;;;;;;15.50;93.40;;;;;;4044401;29;20059;-53
2023/11/14 15:09:52;;;;;;;;;;;15.50;93.40;;;;;;4044538;29;19938;-53
2023/11/14 15:12:33;;;;;;;;;;;15.50;93.40;;;;;;4044213;29;19934;-51
2023/11/14 15:15:14;;;;;;;;;;;15.50;93.50;;;;;;4044482;29;19938;-53
2023/11/14 15:17:56;;;;;;;;;;;15.50;93.90;;;;;;4043788;29;19998;-52
2023/11/14 15:20:40;;;;;;;;;;;15.50;93.50;;;;;;4029324;29;20079;-51
2023/11/14 15:23:23;;;;;;;;;;;15.50;93.50;;;;;;4028311;29;19938;-53
2023/11/14 15:26:04;;;;;;;;;;;15.50;93.50;;;;;;4028827;29;19935;-50
2023/11/14 15:28:45;;;;;;;;;;;15.40;93.50;;;;;;4029556;29;19939;-51
2023/11/14 15:31:26;;;;;;;;;;;15.40;93.60;;;;;;4028953;29;19935;-53
2023/11/14 15:34:08;;;;;;;;;;;15.40;93.70;;;;;;4028804;29;19982;-52
2023/11/14 15:36:50;;;;;;;;;;;15.50;93.80;;;;;;4017156;29;19939;-55
2023/11/14 15:39:33;;;;;;;;;;;15.50;93.90;;;;;;4028927;29;19939;-54